sensor_id;sensor_type;location;lat;lon;timestamp;P1;durP1;ratioP1;P2;durP2;ratioP2
12762;SDS011;6445;52.490;13.378;2022-10-04T00:04:13;7.40;;;2.70;;
12762;SDS011;6445;52.490;13.378;2022-10-04T00:06:54;16.30;;;3.17;;
12762;SDS011;6445;52.490;13.378;2022-10-04T00:09:25;14.75;;;3.00;;
12762;SDS011;6445;52.490;13.378;2022-10-04T00:11:57;11.93;;;3.00;;
12762;SDS011;6445;52.490;13.378;2022-10-04T00:14:26;11.63;;;3.47;;
12762;SDS011;6445;52.490;13.378;2022-10-04T00:16:55;11.57;;;3.20;;
12762;SDS011;6445;52.490;13.378;2022-10-04T00:19:24;11.20;;;2.92;;
12762;SDS011;6445;52.490;13.378;2022-10-04T00:24:31;11.30;;;2.70;;
12762;SDS011;6445;52.490;13.378;2022-10-04T00:27:21;8.57;;;2.45;;
12762;SDS011;6445;52.490;13.378;2022-10-04T00:30:12;11.85;;;3.03;;
12762;SDS011;6445;52.490;13.378;2022-10-04T00:32:50;11.25;;;3.10;;
12762;SDS011;6445;52.490;13.378;2022-10-04T00:37:56;15.27;;;3.60;;
12762;SDS011;6445;52.490;13.378;2022-10-04T00:40:59;11.82;;;3.20;;
12762;SDS011;6445;52.490;13.378;2022-10-04T00:43:31;11.13;;;2.95;;
12762;SDS011;6445;52.490;13.378;2022-10-04T00:46:06;13.18;;;3.22;;
12762;SDS011;6445;52.490;13.378;2022-10-04T00:48:38;9.25;;;2.80;;
12762;SDS011;6445;52.490;13.378;2022-10-04T00:51:10;14.55;;;3.17;;
12762;SDS011;6445;52.490;13.378;2022-10-04T00:56:17;8.80;;;2.88;;
12762;SDS011;6445;52.490;13.378;2022-10-04T00:59:02;13.05;;;3.08;;
12762;SDS011;6445;52.490;13.378;2022-10-04T01:01:35;11.40;;;2.97;;
12762;SDS011;6445;52.490;13.378;2022-10-04T01:04:01;9.88;;;3.30;;
12762;SDS011;6445;52.490;13.378;2022-10-04T01:06:31;13.00;;;3.45;;
12762;SDS011;6445;52.490;13.378;2022-10-04T01:09:04;14.40;;;2.97;;
12762;SDS011;6445;52.490;13.378;2022-10-04T01:11:34;7.75;;;2.40;;
12762;SDS011;6445;52.490;13.378;2022-10-04T01:14:07;11.25;;;2.22;;
12762;SDS011;6445;52.490;13.378;2022-10-04T01:16:39;12.77;;;2.85;;
12762;SDS011;6445;52.490;13.378;2022-10-04T01:19:27;9.80;;;2.90;;
12762;SDS011;6445;52.490;13.378;2022-10-04T01:24:32;9.23;;;2.80;;
12762;SDS011;6445;52.490;13.378;2022-10-04T01:26:59;10.30;;;3.03;;
12762;SDS011;6445;52.490;13.378;2022-10-04T01:29:26;9.95;;;3.13;;
12762;SDS011;6445;52.490;13.378;2022-10-04T01:31:53;11.05;;;3.15;;
12762;SDS011;6445;52.490;13.378;2022-10-04T01:34:22;8.13;;;2.67;;
12762;SDS011;6445;52.490;13.378;2022-10-04T01:36:49;15.32;;;3.00;;
12762;SDS011;6445;52.490;13.378;2022-10-04T01:39:18;12.82;;;3.22;;
12762;SDS011;6445;52.490;13.378;2022-10-04T01:41:47;9.40;;;3.13;;
12762;SDS011;6445;52.490;13.378;2022-10-04T01:44:21;7.75;;;3.10;;
12762;SDS011;6445;52.490;13.378;2022-10-04T01:46:52;12.52;;;3.13;;
12762;SDS011;6445;52.490;13.378;2022-10-04T01:49:22;12.57;;;3.28;;
12762;SDS011;6445;52.490;13.378;2022-10-04T01:54:22;8.07;;;2.97;;
12762;SDS011;6445;52.490;13.378;2022-10-04T01:56:57;10.15;;;2.80;;
12762;SDS011;6445;52.490;13.378;2022-10-04T01:59:29;11.15;;;3.20;;
12762;SDS011;6445;52.490;13.378;2022-10-04T02:02:03;11.07;;;3.40;;
12762;SDS011;6445;52.490;13.378;2022-10-04T02:04:34;8.05;;;3.10;;
12762;SDS011;6445;52.490;13.378;2022-10-04T02:07:02;10.13;;;3.10;;
12762;SDS011;6445;52.490;13.378;2022-10-04T02:09:36;13.52;;;3.30;;
12762;SDS011;6445;52.490;13.378;2022-10-04T02:12:05;14.10;;;3.17;;
12762;SDS011;6445;52.490;13.378;2022-10-04T02:14:31;5.40;;;2.80;;
12762;SDS011;6445;52.490;13.378;2022-10-04T02:16:58;10.15;;;2.75;;
12762;SDS011;6445;52.490;13.378;2022-10-04T02:19:36;15.65;;;3.92;;
12762;SDS011;6445;52.490;13.378;2022-10-04T02:22:05;11.85;;;2.95;;
12762;SDS011;6445;52.490;13.378;2022-10-04T02:24:34;11.10;;;3.15;;
12762;SDS011;6445;52.490;13.378;2022-10-04T02:27:02;10.35;;;3.38;;
12762;SDS011;6445;52.490;13.378;2022-10-04T02:29:28;9.82;;;2.78;;
12762;SDS011;6445;52.490;13.378;2022-10-04T02:31:53;8.43;;;2.67;;
12762;SDS011;6445;52.490;13.378;2022-10-04T02:34:37;10.77;;;2.90;;
12762;SDS011;6445;52.490;13.378;2022-10-04T02:37:04;12.15;;;3.28;;
12762;SDS011;6445;52.490;13.378;2022-10-04T02:39:32;9.77;;;2.80;;
12762;SDS011;6445;52.490;13.378;2022-10-04T02:42:04;10.82;;;2.83;;
12762;SDS011;6445;52.490;13.378;2022-10-04T02:44:42;8.13;;;2.50;;
12762;SDS011;6445;52.490;13.378;2022-10-04T02:47:20;12.80;;;2.90;;
12762;SDS011;6445;52.490;13.378;2022-10-04T02:49:53;10.93;;;2.63;;
12762;SDS011;6445;52.490;13.378;2022-10-04T02:52:29;12.25;;;3.00;;
12762;SDS011;6445;52.490;13.378;2022-10-04T02:57:46;9.40;;;2.83;;
12762;SDS011;6445;52.490;13.378;2022-10-04T03:00:24;8.90;;;2.88;;
12762;SDS011;6445;52.490;13.378;2022-10-04T03:03:07;8.02;;;2.83;;
12762;SDS011;6445;52.490;13.378;2022-10-04T03:05:37;12.23;;;3.00;;
12762;SDS011;6445;52.490;13.378;2022-10-04T03:08:03;10.10;;;3.10;;
12762;SDS011;6445;52.490;13.378;2022-10-04T03:10:29;9.13;;;3.28;;
12762;SDS011;6445;52.490;13.378;2022-10-04T03:12:54;12.15;;;3.40;;
12762;SDS011;6445;52.490;13.378;2022-10-04T03:15:20;14.32;;;3.10;;
12762;SDS011;6445;52.490;13.378;2022-10-04T03:17:45;11.30;;;3.10;;
12762;SDS011;6445;52.490;13.378;2022-10-04T03:20:11;18.95;;;3.63;;
12762;SDS011;6445;52.490;13.378;2022-10-04T03:22:40;9.38;;;3.20;;
12762;SDS011;6445;52.490;13.378;2022-10-04T03:25:11;14.85;;;3.75;;
12762;SDS011;6445;52.490;13.378;2022-10-04T03:27:41;11.90;;;3.53;;
12762;SDS011;6445;52.490;13.378;2022-10-04T03:30:11;14.07;;;4.05;;
12762;SDS011;6445;52.490;13.378;2022-10-04T03:32:38;18.17;;;3.80;;
12762;SDS011;6445;52.490;13.378;2022-10-04T03:35:04;12.93;;;3.53;;
12762;SDS011;6445;52.490;13.378;2022-10-04T03:37:36;12.80;;;3.17;;
12762;SDS011;6445;52.490;13.378;2022-10-04T03:40:02;21.77;;;4.07;;
12762;SDS011;6445;52.490;13.378;2022-10-04T03:42:30;12.25;;;3.67;;
12762;SDS011;6445;52.490;13.378;2022-10-04T03:44:59;16.90;;;4.05;;
12762;SDS011;6445;52.490;13.378;2022-10-04T03:47:29;12.60;;;3.50;;
12762;SDS011;6445;52.490;13.378;2022-10-04T03:49:58;14.82;;;3.95;;
12762;SDS011;6445;52.490;13.378;2022-10-04T03:52:29;7.53;;;3.20;;
12762;SDS011;6445;52.490;13.378;2022-10-04T03:54:58;14.02;;;4.20;;
12762;SDS011;6445;52.490;13.378;2022-10-04T03:57:27;14.45;;;3.65;;
12762;SDS011;6445;52.490;13.378;2022-10-04T03:59:53;9.73;;;3.45;;
12762;SDS011;6445;52.490;13.378;2022-10-04T04:02:42;14.60;;;4.30;;
12762;SDS011;6445;52.490;13.378;2022-10-04T04:08:22;9.82;;;3.70;;
12762;SDS011;6445;52.490;13.378;2022-10-04T04:10:54;16.33;;;3.63;;
12762;SDS011;6445;52.490;13.378;2022-10-04T04:13:23;11.07;;;2.95;;
12762;SDS011;6445;52.490;13.378;2022-10-04T04:16:09;13.80;;;3.15;;
12762;SDS011;6445;52.490;13.378;2022-10-04T04:21:03;10.82;;;3.45;;
12762;SDS011;6445;52.490;13.378;2022-10-04T04:23:38;10.77;;;3.20;;
12762;SDS011;6445;52.490;13.378;2022-10-04T04:26:14;10.73;;;3.45;;
12762;SDS011;6445;52.490;13.378;2022-10-04T04:28:50;9.60;;;2.80;;
12762;SDS011;6445;52.490;13.378;2022-10-04T04:31:20;9.25;;;2.90;;
12762;SDS011;6445;52.490;13.378;2022-10-04T04:33:54;10.13;;;3.38;;
12762;SDS011;6445;52.490;13.378;2022-10-04T04:36:24;10.75;;;3.33;;
12762;SDS011;6445;52.490;13.378;2022-10-04T04:38:50;12.57;;;3.63;;
12762;SDS011;6445;52.490;13.378;2022-10-04T04:41:33;12.40;;;2.92;;
12762;SDS011;6445;52.490;13.378;2022-10-04T04:44:00;9.25;;;2.72;;
12762;SDS011;6445;52.490;13.378;2022-10-04T04:46:26;10.65;;;2.92;;
12762;SDS011;6445;52.490;13.378;2022-10-04T04:48:54;9.63;;;3.20;;
12762;SDS011;6445;52.490;13.378;2022-10-04T04:51:25;8.73;;;3.60;;
12762;SDS011;6445;52.490;13.378;2022-10-04T04:53:51;12.23;;;3.10;;
12762;SDS011;6445;52.490;13.378;2022-10-04T04:56:19;9.73;;;3.67;;
12762;SDS011;6445;52.490;13.378;2022-10-04T04:58:49;14.35;;;3.28;;
12762;SDS011;6445;52.490;13.378;2022-10-04T05:01:18;9.70;;;3.38;;
12762;SDS011;6445;52.490;13.378;2022-10-04T05:03:58;10.95;;;3.10;;
12762;SDS011;6445;52.490;13.378;2022-10-04T05:06:33;13.25;;;3.67;;
12762;SDS011;6445;52.490;13.378;2022-10-04T05:08:59;13.93;;;3.33;;
12762;SDS011;6445;52.490;13.378;2022-10-04T05:11:27;14.43;;;3.53;;
12762;SDS011;6445;52.490;13.378;2022-10-04T05:16:31;10.38;;;3.40;;
12762;SDS011;6445;52.490;13.378;2022-10-04T05:19:04;11.18;;;3.50;;
12762;SDS011;6445;52.490;13.378;2022-10-04T05:21:33;10.50;;;3.67;;
12762;SDS011;6445;52.490;13.378;2022-10-04T05:24:13;12.48;;;4.03;;
12762;SDS011;6445;52.490;13.378;2022-10-04T05:26:47;11.68;;;3.38;;
12762;SDS011;6445;52.490;13.378;2022-10-04T05:29:15;10.98;;;3.35;;
12762;SDS011;6445;52.490;13.378;2022-10-04T05:31:48;11.18;;;3.20;;
12762;SDS011;6445;52.490;13.378;2022-10-04T05:34:24;8.60;;;3.42;;
12762;SDS011;6445;52.490;13.378;2022-10-04T05:39:26;8.82;;;2.90;;
12762;SDS011;6445;52.490;13.378;2022-10-04T05:42:14;9.75;;;3.20;;
12762;SDS011;6445;52.490;13.378;2022-10-04T05:44:49;13.18;;;4.40;;
12762;SDS011;6445;52.490;13.378;2022-10-04T05:47:20;11.43;;;3.15;;
12762;SDS011;6445;52.490;13.378;2022-10-04T05:49:51;10.25;;;3.85;;
12762;SDS011;6445;52.490;13.378;2022-10-04T05:52:30;9.43;;;3.40;;
12762;SDS011;6445;52.490;13.378;2022-10-04T06:07:03;12.00;;;3.20;;
12762;SDS011;6445;52.490;13.378;2022-10-04T06:09:44;10.93;;;3.65;;
12762;SDS011;6445;52.490;13.378;2022-10-04T06:12:36;9.88;;;3.45;;
12762;SDS011;6445;52.490;13.378;2022-10-04T06:23:18;10.25;;;3.67;;
12762;SDS011;6445;52.490;13.378;2022-10-04T06:25:48;9.55;;;3.25;;
12762;SDS011;6445;52.490;13.378;2022-10-04T06:28:18;8.68;;;2.90;;
12762;SDS011;6445;52.490;13.378;2022-10-04T06:30:56;10.57;;;3.13;;
12762;SDS011;6445;52.490;13.378;2022-10-04T06:38:50;6.88;;;2.90;;
12762;SDS011;6445;52.490;13.378;2022-10-04T06:41:44;8.85;;;3.03;;
12762;SDS011;6445;52.490;13.378;2022-10-04T06:44:27;7.47;;;3.00;;
12762;SDS011;6445;52.490;13.378;2022-10-04T06:47:12;11.73;;;3.00;;
12762;SDS011;6445;52.490;13.378;2022-10-04T06:49:53;13.20;;;3.78;;
12762;SDS011;6445;52.490;13.378;2022-10-04T06:55:27;10.38;;;2.90;;
12762;SDS011;6445;52.490;13.378;2022-10-04T06:58:09;8.63;;;3.20;;
12762;SDS011;6445;52.490;13.378;2022-10-04T07:01:12;11.65;;;3.80;;
12762;SDS011;6445;52.490;13.378;2022-10-04T07:03:52;8.05;;;3.50;;
12762;SDS011;6445;52.490;13.378;2022-10-04T07:06:26;11.95;;;3.90;;
12762;SDS011;6445;52.490;13.378;2022-10-04T07:08:55;11.15;;;3.85;;
12762;SDS011;6445;52.490;13.378;2022-10-04T07:11:28;8.55;;;3.20;;
12762;SDS011;6445;52.490;13.378;2022-10-04T07:16:28;13.65;;;4.18;;
12762;SDS011;6445;52.490;13.378;2022-10-04T07:24:43;11.60;;;4.15;;
12762;SDS011;6445;52.490;13.378;2022-10-04T07:27:15;11.77;;;3.80;;
12762;SDS011;6445;52.490;13.378;2022-10-04T07:29:44;9.57;;;3.58;;
12762;SDS011;6445;52.490;13.378;2022-10-04T07:32:24;11.23;;;3.60;;
12762;SDS011;6445;52.490;13.378;2022-10-04T07:37:35;12.35;;;3.60;;
12762;SDS011;6445;52.490;13.378;2022-10-04T07:40:24;9.90;;;3.53;;
12762;SDS011;6445;52.490;13.378;2022-10-04T07:42:55;12.95;;;4.10;;
12762;SDS011;6445;52.490;13.378;2022-10-04T07:45:28;9.82;;;3.75;;
12762;SDS011;6445;52.490;13.378;2022-10-04T07:50:35;11.20;;;3.67;;
12762;SDS011;6445;52.490;13.378;2022-10-04T07:56:00;11.95;;;3.97;;
12762;SDS011;6445;52.490;13.378;2022-10-04T07:58:34;13.93;;;4.55;;
12762;SDS011;6445;52.490;13.378;2022-10-04T08:01:19;11.40;;;4.57;;
12762;SDS011;6445;52.490;13.378;2022-10-04T08:06:33;10.65;;;4.40;;
12762;SDS011;6445;52.490;13.378;2022-10-04T08:09:15;12.32;;;4.38;;
12762;SDS011;6445;52.490;13.378;2022-10-04T08:12:02;10.55;;;4.15;;
12762;SDS011;6445;52.490;13.378;2022-10-04T08:17:29;10.75;;;4.80;;
12762;SDS011;6445;52.490;13.378;2022-10-04T08:20:26;10.82;;;4.85;;
12762;SDS011;6445;52.490;13.378;2022-10-04T08:28:53;12.15;;;4.65;;
12762;SDS011;6445;52.490;13.378;2022-10-04T08:37:47;9.68;;;5.28;;
12762;SDS011;6445;52.490;13.378;2022-10-04T08:40:34;10.32;;;4.63;;
12762;SDS011;6445;52.490;13.378;2022-10-04T08:46:29;9.85;;;4.60;;
12762;SDS011;6445;52.490;13.378;2022-10-04T08:54:56;9.18;;;3.90;;
12762;SDS011;6445;52.490;13.378;2022-10-04T09:00:47;10.18;;;3.53;;
12762;SDS011;6445;52.490;13.378;2022-10-04T09:03:27;4.97;;;3.13;;
12762;SDS011;6445;52.490;13.378;2022-10-04T09:06:11;6.22;;;3.38;;
12762;SDS011;6445;52.490;13.378;2022-10-04T09:11:40;9.45;;;3.35;;
12762;SDS011;6445;52.490;13.378;2022-10-04T09:14:20;8.50;;;3.42;;
12762;SDS011;6445;52.490;13.378;2022-10-04T09:17:20;5.57;;;3.22;;
12762;SDS011;6445;52.490;13.378;2022-10-04T09:22:47;8.55;;;2.83;;
12762;SDS011;6445;52.490;13.378;2022-10-04T09:28:17;7.20;;;2.70;;
12762;SDS011;6445;52.490;13.378;2022-10-04T09:33:54;7.63;;;2.63;;
12762;SDS011;6445;52.490;13.378;2022-10-04T09:36:34;5.20;;;2.47;;
12762;SDS011;6445;52.490;13.378;2022-10-04T09:50:24;5.90;;;2.30;;
12762;SDS011;6445;52.490;13.378;2022-10-04T09:53:23;4.65;;;2.40;;
12762;SDS011;6445;52.490;13.378;2022-10-04T10:04:22;8.60;;;2.80;;
12762;SDS011;6445;52.490;13.378;2022-10-04T10:07:07;5.50;;;2.25;;
12762;SDS011;6445;52.490;13.378;2022-10-04T10:10:07;6.28;;;2.22;;
12762;SDS011;6445;52.490;13.378;2022-10-04T10:13:21;4.03;;;2.80;;
12762;SDS011;6445;52.490;13.378;2022-10-04T10:29:30;5.40;;;2.28;;
12762;SDS011;6445;52.490;13.378;2022-10-04T10:37:58;7.43;;;2.63;;
12762;SDS011;6445;52.490;13.378;2022-10-04T10:40:44;5.88;;;2.47;;
12762;SDS011;6445;52.490;13.378;2022-10-04T10:43:30;9.38;;;2.72;;
12762;SDS011;6445;52.490;13.378;2022-10-04T10:46:21;8.95;;;3.15;;
12762;SDS011;6445;52.490;13.378;2022-10-04T10:49:15;8.10;;;3.30;;
12762;SDS011;6445;52.490;13.378;2022-10-04T10:57:37;7.93;;;2.80;;
12762;SDS011;6445;52.490;13.378;2022-10-04T11:00:50;8.93;;;2.75;;
12762;SDS011;6445;52.490;13.378;2022-10-04T11:03:50;8.15;;;2.58;;
12762;SDS011;6445;52.490;13.378;2022-10-04T11:06:11;8.57;;;2.85;;
12762;SDS011;6445;52.490;13.378;2022-10-04T11:09:04;8.95;;;4.40;;
12762;SDS011;6445;52.490;13.378;2022-10-04T11:21:13;11.73;;;2.60;;
12762;SDS011;6445;52.490;13.378;2022-10-04T11:27:26;5.50;;;2.63;;
12762;SDS011;6445;52.490;13.378;2022-10-04T11:35:33;6.28;;;2.75;;
12762;SDS011;6445;52.490;13.378;2022-10-04T11:38:28;8.35;;;2.28;;
12762;SDS011;6445;52.490;13.378;2022-10-04T11:44:26;12.10;;;2.60;;
12762;SDS011;6445;52.490;13.378;2022-10-04T11:50:05;7.10;;;2.20;;
12762;SDS011;6445;52.490;13.378;2022-10-04T12:01:30;10.85;;;2.42;;
12762;SDS011;6445;52.490;13.378;2022-10-04T12:07:37;11.23;;;2.70;;
12762;SDS011;6445;52.490;13.378;2022-10-04T12:12:57;8.05;;;2.10;;
12762;SDS011;6445;52.490;13.378;2022-10-04T12:21:27;8.07;;;3.30;;
12762;SDS011;6445;52.490;13.378;2022-10-04T12:24:05;11.63;;;2.78;;
12762;SDS011;6445;52.490;13.378;2022-10-04T12:32:25;5.85;;;2.15;;
12762;SDS011;6445;52.490;13.378;2022-10-04T12:34:55;8.60;;;2.13;;
12762;SDS011;6445;52.490;13.378;2022-10-04T12:43:18;6.03;;;3.10;;
12762;SDS011;6445;52.490;13.378;2022-10-04T12:48:32;6.03;;;1.90;;
12762;SDS011;6445;52.490;13.378;2022-10-04T12:51:41;7.30;;;1.90;;
12762;SDS011;6445;52.490;13.378;2022-10-04T12:56:46;6.55;;;2.40;;
12762;SDS011;6445;52.490;13.378;2022-10-04T13:02:17;9.57;;;2.85;;
12762;SDS011;6445;52.490;13.378;2022-10-04T13:07:55;7.90;;;2.47;;
12762;SDS011;6445;52.490;13.378;2022-10-04T13:24:58;5.18;;;1.75;;
12762;SDS011;6445;52.490;13.378;2022-10-04T13:27:41;4.65;;;1.70;;
12762;SDS011;6445;52.490;13.378;2022-10-04T13:30:17;5.03;;;1.65;;
12762;SDS011;6445;52.490;13.378;2022-10-04T13:35:42;4.90;;;1.90;;
12762;SDS011;6445;52.490;13.378;2022-10-04T13:38:22;5.25;;;1.70;;
12762;SDS011;6445;52.490;13.378;2022-10-04T13:47:04;5.15;;;1.67;;
12762;SDS011;6445;52.490;13.378;2022-10-04T13:55:16;6.40;;;2.00;;
12762;SDS011;6445;52.490;13.378;2022-10-04T14:07:35;7.03;;;2.08;;
12762;SDS011;6445;52.490;13.378;2022-10-04T14:21:29;7.03;;;2.75;;
12762;SDS011;6445;52.490;13.378;2022-10-04T14:35:46;7.10;;;2.17;;
12762;SDS011;6445;52.490;13.378;2022-10-04T14:38:21;4.38;;;2.03;;
12762;SDS011;6445;52.490;13.378;2022-10-04T14:47:26;4.28;;;1.83;;
12762;SDS011;6445;52.490;13.378;2022-10-04T14:50:22;4.30;;;1.73;;
12762;SDS011;6445;52.490;13.378;2022-10-04T14:53:03;7.07;;;2.42;;
12762;SDS011;6445;52.490;13.378;2022-10-04T14:55:56;5.30;;;2.42;;
12762;SDS011;6445;52.490;13.378;2022-10-04T15:01:28;4.22;;;1.40;;
12762;SDS011;6445;52.490;13.378;2022-10-04T15:04:07;4.80;;;2.13;;
12762;SDS011;6445;52.490;13.378;2022-10-04T15:07:18;4.05;;;2.00;;
12762;SDS011;6445;52.490;13.378;2022-10-04T15:20:27;5.93;;;1.90;;
12762;SDS011;6445;52.490;13.378;2022-10-04T15:23:14;5.72;;;1.80;;
12762;SDS011;6445;52.490;13.378;2022-10-04T15:28:41;4.88;;;1.67;;
12762;SDS011;6445;52.490;13.378;2022-10-04T15:34:24;3.67;;;1.58;;
12762;SDS011;6445;52.490;13.378;2022-10-04T15:40:19;3.67;;;1.40;;
12762;SDS011;6445;52.490;13.378;2022-10-04T16:01:53;6.03;;;1.50;;
12762;SDS011;6445;52.490;13.378;2022-10-04T16:04:38;3.15;;;1.30;;
12762;SDS011;6445;52.490;13.378;2022-10-04T16:09:56;4.70;;;1.80;;
12762;SDS011;6445;52.490;13.378;2022-10-04T16:12:51;5.50;;;1.52;;
12762;SDS011;6445;52.490;13.378;2022-10-04T16:15:31;4.07;;;1.70;;
12762;SDS011;6445;52.490;13.378;2022-10-04T16:18:05;5.57;;;2.15;;
12762;SDS011;6445;52.490;13.378;2022-10-04T16:29:27;5.80;;;1.90;;
12762;SDS011;6445;52.490;13.378;2022-10-04T16:32:24;6.93;;;1.90;;
12762;SDS011;6445;52.490;13.378;2022-10-04T16:37:57;5.13;;;2.38;;
12762;SDS011;6445;52.490;13.378;2022-10-04T16:40:36;12.35;;;6.40;;
12762;SDS011;6445;52.490;13.378;2022-10-04T16:43:23;10.20;;;2.90;;
12762;SDS011;6445;52.490;13.378;2022-10-04T16:59:41;5.55;;;2.60;;
12762;SDS011;6445;52.490;13.378;2022-10-04T17:07:59;7.13;;;2.55;;
12762;SDS011;6445;52.490;13.378;2022-10-04T17:10:57;6.75;;;2.53;;
12762;SDS011;6445;52.490;13.378;2022-10-04T17:13:49;4.50;;;2.47;;
12762;SDS011;6445;52.490;13.378;2022-10-04T17:16:29;5.32;;;3.63;;
12762;SDS011;6445;52.490;13.378;2022-10-04T17:19:23;14.60;;;6.28;;
12762;SDS011;6445;52.490;13.378;2022-10-04T17:22:12;12.00;;;5.07;;
12762;SDS011;6445;52.490;13.378;2022-10-04T17:25:00;8.25;;;3.70;;
12762;SDS011;6445;52.490;13.378;2022-10-04T17:30:18;6.35;;;3.53;;
12762;SDS011;6445;52.490;13.378;2022-10-04T17:41:16;7.53;;;3.50;;
12762;SDS011;6445;52.490;13.378;2022-10-04T17:44:09;9.38;;;4.00;;
12762;SDS011;6445;52.490;13.378;2022-10-04T17:47:18;5.40;;;2.70;;
12762;SDS011;6445;52.490;13.378;2022-10-04T17:49:53;7.65;;;2.75;;
12762;SDS011;6445;52.490;13.378;2022-10-04T17:52:44;6.15;;;3.42;;
12762;SDS011;6445;52.490;13.378;2022-10-04T17:58:21;4.97;;;2.83;;
12762;SDS011;6445;52.490;13.378;2022-10-04T18:00:56;5.47;;;3.05;;
12762;SDS011;6445;52.490;13.378;2022-10-04T18:03:31;8.45;;;3.13;;
12762;SDS011;6445;52.490;13.378;2022-10-04T18:08:54;7.85;;;3.70;;
12762;SDS011;6445;52.490;13.378;2022-10-04T18:11:39;8.18;;;4.63;;
12762;SDS011;6445;52.490;13.378;2022-10-04T18:16:55;6.78;;;3.33;;
12762;SDS011;6445;52.490;13.378;2022-10-04T18:19:35;6.63;;;3.10;;
12762;SDS011;6445;52.490;13.378;2022-10-04T18:22:12;8.02;;;3.38;;
12762;SDS011;6445;52.490;13.378;2022-10-04T18:24:38;6.28;;;3.25;;
12762;SDS011;6445;52.490;13.378;2022-10-04T18:30:31;5.70;;;2.75;;
12762;SDS011;6445;52.490;13.378;2022-10-04T18:32:49;5.30;;;2.90;;
12762;SDS011;6445;52.490;13.378;2022-10-04T18:35:33;6.03;;;3.03;;
12762;SDS011;6445;52.490;13.378;2022-10-04T18:41:01;6.60;;;3.72;;
12762;SDS011;6445;52.490;13.378;2022-10-04T18:46:22;8.75;;;3.05;;
12762;SDS011;6445;52.490;13.378;2022-10-04T18:48:59;4.30;;;2.97;;
12762;SDS011;6445;52.490;13.378;2022-10-04T18:51:47;7.35;;;2.90;;
12762;SDS011;6445;52.490;13.378;2022-10-04T19:05:26;7.00;;;3.13;;
12762;SDS011;6445;52.490;13.378;2022-10-04T19:07:56;7.07;;;3.03;;
12762;SDS011;6445;52.490;13.378;2022-10-04T19:16:20;6.50;;;3.20;;
12762;SDS011;6445;52.490;13.378;2022-10-04T19:18:55;4.65;;;2.50;;
12762;SDS011;6445;52.490;13.378;2022-10-04T19:21:37;6.82;;;2.80;;
12762;SDS011;6445;52.490;13.378;2022-10-04T19:27:02;6.25;;;2.80;;
12762;SDS011;6445;52.490;13.378;2022-10-04T19:29:37;4.78;;;2.78;;
12762;SDS011;6445;52.490;13.378;2022-10-04T19:37:43;5.80;;;3.78;;
12762;SDS011;6445;52.490;13.378;2022-10-04T19:40:30;6.75;;;3.50;;
12762;SDS011;6445;52.490;13.378;2022-10-04T19:43:00;6.93;;;3.63;;
12762;SDS011;6445;52.490;13.378;2022-10-04T19:45:37;6.20;;;3.80;;
12762;SDS011;6445;52.490;13.378;2022-10-04T19:48:16;5.15;;;3.20;;
12762;SDS011;6445;52.490;13.378;2022-10-04T19:50:46;4.78;;;3.22;;
12762;SDS011;6445;52.490;13.378;2022-10-04T19:53:19;8.40;;;3.40;;
12762;SDS011;6445;52.490;13.378;2022-10-04T19:55:57;7.07;;;3.40;;
12762;SDS011;6445;52.490;13.378;2022-10-04T20:01:11;6.65;;;3.53;;
12762;SDS011;6445;52.490;13.378;2022-10-04T20:03:37;6.10;;;3.58;;
12762;SDS011;6445;52.490;13.378;2022-10-04T20:06:03;6.63;;;4.43;;
12762;SDS011;6445;52.490;13.378;2022-10-04T20:11:20;4.88;;;3.03;;
12762;SDS011;6445;52.490;13.378;2022-10-04T20:14:41;8.10;;;3.70;;
12762;SDS011;6445;52.490;13.378;2022-10-04T20:27:05;6.03;;;3.67;;
12762;SDS011;6445;52.490;13.378;2022-10-04T20:34:50;6.27;;;3.33;;
12762;SDS011;6445;52.490;13.378;2022-10-04T20:37:16;5.88;;;3.58;;
12762;SDS011;6445;52.490;13.378;2022-10-04T20:42:25;6.27;;;3.80;;
12762;SDS011;6445;52.490;13.378;2022-10-04T20:44:57;8.90;;;3.90;;
12762;SDS011;6445;52.490;13.378;2022-10-04T20:47:35;6.50;;;3.47;;
12762;SDS011;6445;52.490;13.378;2022-10-04T20:50:04;10.90;;;4.03;;
12762;SDS011;6445;52.490;13.378;2022-10-04T20:52:41;9.13;;;3.90;;
12762;SDS011;6445;52.490;13.378;2022-10-04T20:56:06;5.57;;;3.88;;
12762;SDS011;6445;52.490;13.378;2022-10-04T20:58:02;6.28;;;3.90;;
12762;SDS011;6445;52.490;13.378;2022-10-04T21:00:49;8.68;;;4.20;;
12762;SDS011;6445;52.490;13.378;2022-10-04T21:03:19;7.82;;;4.00;;
12762;SDS011;6445;52.490;13.378;2022-10-04T21:05:57;8.77;;;4.10;;
12762;SDS011;6445;52.490;13.378;2022-10-04T21:08:24;11.93;;;3.63;;
12762;SDS011;6445;52.490;13.378;2022-10-04T21:13:46;7.57;;;4.28;;
12762;SDS011;6445;52.490;13.378;2022-10-04T21:16:35;6.55;;;3.95;;
12762;SDS011;6445;52.490;13.378;2022-10-04T21:21:56;5.32;;;3.45;;
12762;SDS011;6445;52.490;13.378;2022-10-04T21:24:35;6.25;;;3.63;;
12762;SDS011;6445;52.490;13.378;2022-10-04T21:27:02;6.50;;;3.47;;
12762;SDS011;6445;52.490;13.378;2022-10-04T21:29:29;6.20;;;3.50;;
12762;SDS011;6445;52.490;13.378;2022-10-04T21:31:55;6.10;;;3.30;;
12762;SDS011;6445;52.490;13.378;2022-10-04T21:34:21;8.48;;;3.50;;
12762;SDS011;6445;52.490;13.378;2022-10-04T21:36:47;7.20;;;3.30;;
12762;SDS011;6445;52.490;13.378;2022-10-04T21:39:12;6.28;;;3.67;;
12762;SDS011;6445;52.490;13.378;2022-10-04T21:41:37;5.93;;;3.10;;
12762;SDS011;6445;52.490;13.378;2022-10-04T21:44:02;6.82;;;3.50;;
12762;SDS011;6445;52.490;13.378;2022-10-04T21:46:28;7.13;;;3.05;;
12762;SDS011;6445;52.490;13.378;2022-10-04T21:48:53;5.50;;;3.22;;
12762;SDS011;6445;52.490;13.378;2022-10-04T21:51:18;5.93;;;3.10;;
12762;SDS011;6445;52.490;13.378;2022-10-04T21:53:43;5.43;;;3.45;;
12762;SDS011;6445;52.490;13.378;2022-10-04T21:56:09;6.85;;;3.78;;
12762;SDS011;6445;52.490;13.378;2022-10-04T21:58:34;6.85;;;3.40;;
12762;SDS011;6445;52.490;13.378;2022-10-04T22:00:59;7.22;;;3.65;;
12762;SDS011;6445;52.490;13.378;2022-10-04T22:03:46;8.40;;;3.30;;
12762;SDS011;6445;52.490;13.378;2022-10-04T22:06:10;6.80;;;3.58;;
12762;SDS011;6445;52.490;13.378;2022-10-04T22:08:35;7.43;;;3.70;;
12762;SDS011;6445;52.490;13.378;2022-10-04T22:11:00;4.75;;;3.60;;
12762;SDS011;6445;52.490;13.378;2022-10-04T22:13:26;5.63;;;3.20;;
12762;SDS011;6445;52.490;13.378;2022-10-04T22:15:51;6.05;;;3.50;;
12762;SDS011;6445;52.490;13.378;2022-10-04T22:18:16;4.68;;;3.13;;
12762;SDS011;6445;52.490;13.378;2022-10-04T22:20:42;4.70;;;3.70;;
12762;SDS011;6445;52.490;13.378;2022-10-04T22:23:17;4.97;;;3.33;;
12762;SDS011;6445;52.490;13.378;2022-10-04T22:25:45;6.07;;;3.42;;
12762;SDS011;6445;52.490;13.378;2022-10-04T22:28:12;8.55;;;3.25;;
12762;SDS011;6445;52.490;13.378;2022-10-04T22:30:43;6.45;;;3.72;;
12762;SDS011;6445;52.490;13.378;2022-10-04T22:33:16;5.88;;;3.20;;
12762;SDS011;6445;52.490;13.378;2022-10-04T22:35:48;6.72;;;3.35;;
12762;SDS011;6445;52.490;13.378;2022-10-04T22:38:13;6.10;;;3.80;;
12762;SDS011;6445;52.490;13.378;2022-10-04T22:40:38;4.47;;;3.20;;
12762;SDS011;6445;52.490;13.378;2022-10-04T22:43:04;6.38;;;3.85;;
12762;SDS011;6445;52.490;13.378;2022-10-04T22:45:37;6.38;;;3.25;;
12762;SDS011;6445;52.490;13.378;2022-10-04T22:48:06;4.88;;;3.42;;
12762;SDS011;6445;52.490;13.378;2022-10-04T22:50:36;4.63;;;3.60;;
12762;SDS011;6445;52.490;13.378;2022-10-04T22:53:03;3.85;;;3.40;;
12762;SDS011;6445;52.490;13.378;2022-10-04T22:55:36;7.00;;;3.47;;
12762;SDS011;6445;52.490;13.378;2022-10-04T22:58:01;3.70;;;3.10;;
12762;SDS011;6445;52.490;13.378;2022-10-04T23:00:27;5.40;;;3.60;;
12762;SDS011;6445;52.490;13.378;2022-10-04T23:02:53;6.38;;;3.30;;
12762;SDS011;6445;52.490;13.378;2022-10-04T23:05:19;6.53;;;3.60;;
12762;SDS011;6445;52.490;13.378;2022-10-04T23:07:45;8.45;;;3.60;;